sensor_id;sensor_type;location;lat;lon;timestamp;pressure;altitude;pressure_sealevel;temperature;humidity
40982;BME280;26708;50.304;19.028;2023-08-06T00:01:11;97090.22;;;19.72;74.57
40982;BME280;26708;50.304;19.028;2023-08-06T00:03:15;97015.88;;;19.44;74.84
40982;BME280;26708;50.304;19.028;2023-08-06T00:05:21;97018.09;;;19.37;75.06
40982;BME280;26708;50.304;19.028;2023-08-06T00:07:25;97070.59;;;19.88;75.31
40982;BME280;26708;50.304;19.028;2023-08-06T00:09:30;96997.66;;;19.52;75.56
40982;BME280;26708;50.304;19.028;2023-08-06T00:11:36;96946.28;;;19.12;75.65
40982;BME280;26708;50.304;19.028;2023-08-06T00:13:42;96999.56;;;19.50;75.23
40982;BME280;26708;50.304;19.028;2023-08-06T00:15:47;96797.81;;;18.42;75.25
40982;BME280;26708;50.304;19.028;2023-08-06T00:17:52;97071.72;;;19.98;75.18
40982;BME280;26708;50.304;19.028;2023-08-06T00:19:57;96768.81;;;18.53;74.83
40982;BME280;26708;50.304;19.028;2023-08-06T00:22:08;96898.94;;;19.33;74.91
40982;BME280;26708;50.304;19.028;2023-08-06T00:24:13;96996.97;;;20.17;74.79
40982;BME280;26708;50.304;19.028;2023-08-06T00:26:18;96728.41;;;18.50;74.33
40982;BME280;26708;50.304;19.028;2023-08-06T00:28:22;96940.72;;;19.84;74.50
40982;BME280;26708;50.304;19.028;2023-08-06T00:30:29;96849.75;;;19.41;74.15
40982;BME280;26708;50.304;19.028;2023-08-06T00:32:33;96938.00;;;20.24;74.31
40982;BME280;26708;50.304;19.028;2023-08-06T00:34:38;96860.41;;;19.80;74.18
40982;BME280;26708;50.304;19.028;2023-08-06T00:36:43;96921.72;;;20.29;74.13
40982;BME280;26708;50.304;19.028;2023-08-06T00:38:50;96867.75;;;20.28;74.08
40982;BME280;26708;50.304;19.028;2023-08-06T00:40:56;96841.91;;;20.30;74.05
40982;BME280;26708;50.304;19.028;2023-08-06T00:43:02;96581.78;;;18.63;73.75
40982;BME280;26708;50.304;19.028;2023-08-06T00:45:07;96835.50;;;20.08;73.91
40982;BME280;26708;50.304;19.028;2023-08-06T00:47:13;96812.31;;;19.97;73.84
40982;BME280;26708;50.304;19.028;2023-08-06T00:49:19;96564.31;;;18.47;73.78
40982;BME280;26708;50.304;19.028;2023-08-06T00:51:25;96720.25;;;18.93;73.69
40982;BME280;26708;50.304;19.028;2023-08-06T00:53:31;96721.41;;;18.49;73.84
40982;BME280;26708;50.304;19.028;2023-08-06T00:55:40;96778.47;;;19.09;73.77
40982;BME280;26708;50.304;19.028;2023-08-06T00:57:45;96825.63;;;19.71;74.15
40982;BME280;26708;50.304;19.028;2023-08-06T00:59:53;96609.16;;;18.50;74.33
40982;BME280;26708;50.304;19.028;2023-08-06T01:02:00;96639.22;;;18.63;74.08
40982;BME280;26708;50.304;19.028;2023-08-06T01:04:05;96795.34;;;19.61;74.29
40982;BME280;26708;50.304;19.028;2023-08-06T01:06:10;96689.03;;;18.84;74.36
40982;BME280;26708;50.304;19.028;2023-08-06T01:08:26;96679.09;;;19.00;74.40
40982;BME280;26708;50.304;19.028;2023-08-06T01:10:54;96819.47;;;19.83;74.70
40982;BME280;26708;50.304;19.028;2023-08-06T01:13:17;96874.19;;;20.12;74.64
40982;BME280;26708;50.304;19.028;2023-08-06T01:15:34;96873.22;;;20.13;74.37
40982;BME280;26708;50.304;19.028;2023-08-06T01:17:45;96641.81;;;18.77;74.22
40982;BME280;26708;50.304;19.028;2023-08-06T01:19:51;96609.47;;;18.45;74.10
40982;BME280;26708;50.304;19.028;2023-08-06T01:21:58;96819.59;;;19.81;74.28
40982;BME280;26708;50.304;19.028;2023-08-06T01:24:03;96865.16;;;20.14;74.36
40982;BME280;26708;50.304;19.028;2023-08-06T01:26:15;96870.06;;;20.20;74.21
40982;BME280;26708;50.304;19.028;2023-08-06T01:28:35;96849.44;;;20.24;74.06
40982;BME280;26708;50.304;19.028;2023-08-06T01:30:50;96603.78;;;18.90;73.99
40982;BME280;26708;50.304;19.028;2023-08-06T01:33:04;96827.88;;;20.28;73.90
40982;BME280;26708;50.304;19.028;2023-08-06T01:35:12;96765.03;;;19.90;73.76
40982;BME280;26708;50.304;19.028;2023-08-06T01:37:24;96820.72;;;20.16;73.85
40982;BME280;26708;50.304;19.028;2023-08-06T01:39:30;96592.94;;;18.81;73.70
40982;BME280;26708;50.304;19.028;2023-08-06T01:41:38;96839.66;;;20.24;73.86
40982;BME280;26708;50.304;19.028;2023-08-06T01:43:43;96771.53;;;20.23;73.96
40982;BME280;26708;50.304;19.028;2023-08-06T01:45:48;96558.91;;;18.75;73.64
40982;BME280;26708;50.304;19.028;2023-08-06T01:47:53;96774.81;;;20.27;73.36
40982;BME280;26708;50.304;19.028;2023-08-06T01:49:59;96601.31;;;19.14;73.54
40982;BME280;26708;50.304;19.028;2023-08-06T01:52:05;96665.25;;;19.48;73.75
40982;BME280;26708;50.304;19.028;2023-08-06T01:54:13;96667.22;;;19.32;73.60
40982;BME280;26708;50.304;19.028;2023-08-06T01:56:17;96587.31;;;18.85;73.69
40982;BME280;26708;50.304;19.028;2023-08-06T01:58:23;96601.66;;;18.83;74.09
40982;BME280;26708;50.304;19.028;2023-08-06T02:00:27;96664.16;;;18.99;74.13
40982;BME280;26708;50.304;19.028;2023-08-06T02:02:32;96591.25;;;18.53;74.18
40982;BME280;26708;50.304;19.028;2023-08-06T02:04:39;96537.91;;;18.45;74.00
40982;BME280;26708;50.304;19.028;2023-08-06T02:06:43;96535.88;;;18.36;74.43
40982;BME280;26708;50.304;19.028;2023-08-06T02:08:48;96813.72;;;20.03;74.50
40982;BME280;26708;50.304;19.028;2023-08-06T02:10:56;96734.81;;;19.27;74.45
40982;BME280;26708;50.304;19.028;2023-08-06T02:13:01;96601.25;;;18.62;74.34
40982;BME280;26708;50.304;19.028;2023-08-06T02:15:11;96505.06;;;18.21;74.58
40982;BME280;26708;50.304;19.028;2023-08-06T02:17:16;96730.28;;;19.29;74.81
40982;BME280;26708;50.304;19.028;2023-08-06T02:19:21;96593.84;;;18.67;74.09
40982;BME280;26708;50.304;19.028;2023-08-06T02:21:25;96647.78;;;19.19;74.43
40982;BME280;26708;50.304;19.028;2023-08-06T02:23:31;96795.53;;;20.09;74.43
40982;BME280;26708;50.304;19.028;2023-08-06T02:25:33;96801.38;;;20.14;74.35
40982;BME280;26708;50.304;19.028;2023-08-06T02:27:40;96541.78;;;18.54;73.96
40982;BME280;26708;50.304;19.028;2023-08-06T02:29:46;96796.31;;;20.24;73.91
40982;BME280;26708;50.304;19.028;2023-08-06T02:31:50;96794.28;;;20.27;73.75
40982;BME280;26708;50.304;19.028;2023-08-06T02:33:55;96512.69;;;18.40;73.43
40982;BME280;26708;50.304;19.028;2023-08-06T02:35:59;96755.91;;;20.06;73.54
40982;BME280;26708;50.304;19.028;2023-08-06T02:38:05;96493.50;;;18.36;73.32
40982;BME280;26708;50.304;19.028;2023-08-06T02:40:08;96745.19;;;19.95;73.38
40982;BME280;26708;50.304;19.028;2023-08-06T02:42:14;96796.28;;;20.36;73.25
40982;BME280;26708;50.304;19.028;2023-08-06T02:44:21;96784.28;;;20.31;73.13
40982;BME280;26708;50.304;19.028;2023-08-06T02:46:26;96673.22;;;19.61;73.15
40982;BME280;26708;50.304;19.028;2023-08-06T02:48:31;96781.06;;;20.38;73.09
40982;BME280;26708;50.304;19.028;2023-08-06T02:50:40;96769.91;;;20.33;72.95
40982;BME280;26708;50.304;19.028;2023-08-06T02:52:45;96774.69;;;20.41;72.97
40982;BME280;26708;50.304;19.028;2023-08-06T02:54:50;96709.78;;;20.07;73.01
40982;BME280;26708;50.304;19.028;2023-08-06T02:56:55;96662.59;;;19.61;73.04
40982;BME280;26708;50.304;19.028;2023-08-06T02:59:04;96774.59;;;20.42;72.87
40982;BME280;26708;50.304;19.028;2023-08-06T03:01:29;96493.34;;;18.64;72.80
40982;BME280;26708;50.304;19.028;2023-08-06T03:03:40;96548.84;;;19.05;72.84
40982;BME280;26708;50.304;19.028;2023-08-06T03:05:51;96495.28;;;18.75;72.69
40982;BME280;26708;50.304;19.028;2023-08-06T03:08:08;96750.38;;;20.34;73.00
40982;BME280;26708;50.304;19.028;2023-08-06T03:10:13;96609.50;;;19.48;72.86
40982;BME280;26708;50.304;19.028;2023-08-06T03:12:18;96656.75;;;19.68;72.89
40982;BME280;26708;50.304;19.028;2023-08-06T03:14:24;96719.13;;;20.13;72.87
40982;BME280;26708;50.304;19.028;2023-08-06T03:16:31;96768.09;;;20.46;72.85
40982;BME280;26708;50.304;19.028;2023-08-06T03:18:36;96754.06;;;20.44;72.97
40982;BME280;26708;50.304;19.028;2023-08-06T03:20:44;96719.13;;;20.00;72.84
40982;BME280;26708;50.304;19.028;2023-08-06T03:22:49;96635.41;;;19.70;72.82
40982;BME280;26708;50.304;19.028;2023-08-06T03:24:55;96673.97;;;20.00;72.79
40982;BME280;26708;50.304;19.028;2023-08-06T03:27:00;96479.78;;;18.81;73.05
40982;BME280;26708;50.304;19.028;2023-08-06T03:29:06;96464.31;;;18.75;73.25
40982;BME280;26708;50.304;19.028;2023-08-06T03:31:11;96519.56;;;18.94;73.36
40982;BME280;26708;50.304;19.028;2023-08-06T03:33:22;96700.84;;;20.08;73.60
40982;BME280;26708;50.304;19.028;2023-08-06T03:35:26;96744.59;;;20.40;73.57
40982;BME280;26708;50.304;19.028;2023-08-06T03:37:29;96739.28;;;20.40;73.47
40982;BME280;26708;50.304;19.028;2023-08-06T03:39:34;96735.78;;;20.40;73.66
40982;BME280;26708;50.304;19.028;2023-08-06T03:41:39;96729.41;;;20.42;73.54
40982;BME280;26708;50.304;19.028;2023-08-06T03:43:43;96610.75;;;19.55;73.60
40982;BME280;26708;50.304;19.028;2023-08-06T03:45:55;96654.97;;;19.94;73.65
40982;BME280;26708;50.304;19.028;2023-08-06T03:48:00;96724.28;;;20.39;73.79
40982;BME280;26708;50.304;19.028;2023-08-06T03:50:09;96643.47;;;19.93;73.89
40982;BME280;26708;50.304;19.028;2023-08-06T03:52:15;96447.97;;;18.69;73.75
40982;BME280;26708;50.304;19.028;2023-08-06T03:54:19;96603.84;;;19.78;73.83
40982;BME280;26708;50.304;19.028;2023-08-06T03:56:24;96715.25;;;20.42;73.84
40982;BME280;26708;50.304;19.028;2023-08-06T03:58:29;96707.38;;;20.40;73.72
40982;BME280;26708;50.304;19.028;2023-08-06T04:00:34;96646.97;;;20.06;74.02
40982;BME280;26708;50.304;19.028;2023-08-06T04:02:39;96556.41;;;19.36;73.94
40982;BME280;26708;50.304;19.028;2023-08-06T04:04:46;96664.59;;;20.07;73.93
40982;BME280;26708;50.304;19.028;2023-08-06T04:06:53;96520.97;;;19.24;73.98
40982;BME280;26708;50.304;19.028;2023-08-06T04:08:57;96685.66;;;20.23;74.00
40982;BME280;26708;50.304;19.028;2023-08-06T04:11:03;96615.78;;;19.60;74.14
40982;BME280;26708;50.304;19.028;2023-08-06T04:13:08;96414.34;;;18.69;74.00
40982;BME280;26708;50.304;19.028;2023-08-06T04:15:12;96718.44;;;20.47;74.09
40982;BME280;26708;50.304;19.028;2023-08-06T04:17:18;96570.19;;;19.66;73.83
40982;BME280;26708;50.304;19.028;2023-08-06T04:19:24;96675.47;;;20.40;73.91
40982;BME280;26708;50.304;19.028;2023-08-06T04:21:29;96709.06;;;20.53;73.65
40982;BME280;26708;50.304;19.028;2023-08-06T04:23:37;96692.69;;;20.59;73.43
40982;BME280;26708;50.304;19.028;2023-08-06T04:25:43;96699.09;;;20.57;73.46
40982;BME280;26708;50.304;19.028;2023-08-06T04:27:48;96710.47;;;20.59;73.37
40982;BME280;26708;50.304;19.028;2023-08-06T04:29:55;96679.59;;;20.08;73.33
40982;BME280;26708;50.304;19.028;2023-08-06T04:32:00;96720.38;;;20.57;73.66
40982;BME280;26708;50.304;19.028;2023-08-06T04:34:05;96696.22;;;20.48;73.72
40982;BME280;26708;50.304;19.028;2023-08-06T04:36:13;96704.19;;;20.60;73.74
40982;BME280;26708;50.304;19.028;2023-08-06T04:38:17;96680.50;;;20.57;73.65
40982;BME280;26708;50.304;19.028;2023-08-06T04:40:24;96647.78;;;20.32;73.68
40982;BME280;26708;50.304;19.028;2023-08-06T04:42:30;96462.72;;;19.10;73.41
40982;BME280;26708;50.304;19.028;2023-08-06T04:44:35;96689.25;;;20.70;73.25
40982;BME280;26708;50.304;19.028;2023-08-06T04:46:39;96522.66;;;19.50;73.15
40982;BME280;26708;50.304;19.028;2023-08-06T04:48:45;96682.75;;;20.74;73.17
40982;BME280;26708;50.304;19.028;2023-08-06T04:50:50;96525.25;;;19.75;72.90
40982;BME280;26708;50.304;19.028;2023-08-06T04:52:55;96473.19;;;19.49;72.90
40982;BME280;26708;50.304;19.028;2023-08-06T04:54:58;96373.81;;;18.92;72.99
40982;BME280;26708;50.304;19.028;2023-08-06T04:57:06;96448.69;;;19.21;72.86
40982;BME280;26708;50.304;19.028;2023-08-06T04:59:10;96659.56;;;20.76;72.92
40982;BME280;26708;50.304;19.028;2023-08-06T05:01:16;96336.88;;;18.78;72.48
40982;BME280;26708;50.304;19.028;2023-08-06T05:03:22;96380.50;;;19.10;72.41
40982;BME280;26708;50.304;19.028;2023-08-06T05:05:29;96657.41;;;20.81;72.38
40982;BME280;26708;50.304;19.028;2023-08-06T05:07:35;96613.16;;;20.57;72.48
40982;BME280;26708;50.304;19.028;2023-08-06T05:09:39;96374.25;;;19.11;72.44
40982;BME280;26708;50.304;19.028;2023-08-06T05:11:44;96638.25;;;20.53;72.44
40982;BME280;26708;50.304;19.028;2023-08-06T05:13:52;96374.41;;;19.08;72.24
40982;BME280;26708;50.304;19.028;2023-08-06T05:15:54;96685.47;;;20.85;72.42
40982;BME280;26708;50.304;19.028;2023-08-06T05:17:58;96681.84;;;20.86;72.36
40982;BME280;26708;50.304;19.028;2023-08-06T05:20:05;96478.66;;;19.71;72.12
40982;BME280;26708;50.304;19.028;2023-08-06T05:22:10;96394.81;;;19.20;72.11
40982;BME280;26708;50.304;19.028;2023-08-06T05:24:14;96654.75;;;20.81;72.26
40982;BME280;26708;50.304;19.028;2023-08-06T05:26:20;96675.25;;;20.91;72.27
40982;BME280;26708;50.304;19.028;2023-08-06T05:28:24;96634.47;;;20.91;72.17
40982;BME280;26708;50.304;19.028;2023-08-06T05:30:31;96515.72;;;20.09;71.98
40982;BME280;26708;50.304;19.028;2023-08-06T05:32:39;96501.03;;;20.16;72.04
40982;BME280;26708;50.304;19.028;2023-08-06T05:34:43;96421.94;;;19.72;71.99
40982;BME280;26708;50.304;19.028;2023-08-06T05:36:48;96630.03;;;20.91;72.23
40982;BME280;26708;50.304;19.028;2023-08-06T05:38:54;96612.69;;;20.86;72.14
40982;BME280;26708;50.304;19.028;2023-08-06T05:40:59;96419.72;;;19.66;72.08
40982;BME280;26708;50.304;19.028;2023-08-06T05:43:03;96604.22;;;20.81;72.30
40982;BME280;26708;50.304;19.028;2023-08-06T05:45:09;96348.66;;;19.23;72.25
40982;BME280;26708;50.304;19.028;2023-08-06T05:47:17;96582.59;;;20.62;72.28
40982;BME280;26708;50.304;19.028;2023-08-06T05:49:21;96602.97;;;20.74;72.52
40982;BME280;26708;50.304;19.028;2023-08-06T05:51:27;96544.41;;;20.40;72.45
40982;BME280;26708;50.304;19.028;2023-08-06T05:53:31;96595.63;;;20.77;72.38
40982;BME280;26708;50.304;19.028;2023-08-06T05:55:36;96298.84;;;18.90;72.17
40982;BME280;26708;50.304;19.028;2023-08-06T05:57:41;96489.22;;;19.96;72.37
40982;BME280;26708;50.304;19.028;2023-08-06T05:59:46;96420.56;;;19.67;71.50
40982;BME280;26708;50.304;19.028;2023-08-06T06:01:50;96364.97;;;19.29;70.71
40982;BME280;26708;50.304;19.028;2023-08-06T06:03:58;96562.28;;;20.38;70.81
40982;BME280;26708;50.304;19.028;2023-08-06T06:06:03;96600.81;;;20.56;69.99
40982;BME280;26708;50.304;19.028;2023-08-06T06:08:07;96596.03;;;20.48;69.59
40982;BME280;26708;50.304;19.028;2023-08-06T06:10:13;96510.19;;;19.88;69.22
40982;BME280;26708;50.304;19.028;2023-08-06T06:12:17;96537.66;;;20.00;68.82
40982;BME280;26708;50.304;19.028;2023-08-06T06:14:23;96520.56;;;19.79;68.47
40982;BME280;26708;50.304;19.028;2023-08-06T06:16:28;96506.03;;;19.72;68.21
40982;BME280;26708;50.304;19.028;2023-08-06T06:18:33;96581.19;;;20.10;67.82
40982;BME280;26708;50.304;19.028;2023-08-06T06:20:40;96429.31;;;19.20;67.57
40982;BME280;26708;50.304;19.028;2023-08-06T06:22:45;96400.66;;;18.88;67.61
40982;BME280;26708;50.304;19.028;2023-08-06T06:24:50;96500.19;;;19.31;67.56
40982;BME280;26708;50.304;19.028;2023-08-06T06:26:54;96549.25;;;19.74;68.07
40982;BME280;26708;50.304;19.028;2023-08-06T06:29:00;96536.88;;;19.62;68.46
40982;BME280;26708;50.304;19.028;2023-08-06T06:31:04;96352.34;;;18.47;68.68
40982;BME280;26708;50.304;19.028;2023-08-06T06:33:08;96301.63;;;17.89;69.03
40982;BME280;26708;50.304;19.028;2023-08-06T06:35:14;96424.44;;;18.77;68.59
40982;BME280;26708;50.304;19.028;2023-08-06T06:37:21;96463.88;;;18.94;69.14
40982;BME280;26708;50.304;19.028;2023-08-06T06:39:25;96539.84;;;19.32;69.31
40982;BME280;26708;50.304;19.028;2023-08-06T06:41:31;96547.53;;;19.37;69.79
40982;BME280;26708;50.304;19.028;2023-08-06T06:43:44;96541.34;;;19.36;69.34
40982;BME280;26708;50.304;19.028;2023-08-06T06:45:52;96522.25;;;19.31;69.14
40982;BME280;26708;50.304;19.028;2023-08-06T06:47:58;96545.06;;;19.21;68.95
40982;BME280;26708;50.304;19.028;2023-08-06T06:50:03;96536.78;;;19.13;68.90
40982;BME280;26708;50.304;19.028;2023-08-06T06:52:08;96336.34;;;17.72;68.95
40982;BME280;26708;50.304;19.028;2023-08-06T06:54:16;96545.53;;;19.01;69.18
40982;BME280;26708;50.304;19.028;2023-08-06T06:56:21;96525.81;;;18.93;69.32
40982;BME280;26708;50.304;19.028;2023-08-06T06:58:25;96530.81;;;18.85;69.50
40982;BME280;26708;50.304;19.028;2023-08-06T07:00:31;96519.00;;;18.76;69.48
40982;BME280;26708;50.304;19.028;2023-08-06T07:02:35;96396.53;;;17.95;70.20
40982;BME280;26708;50.304;19.028;2023-08-06T07:04:40;96312.88;;;17.27;70.18
40982;BME280;26708;50.304;19.028;2023-08-06T07:06:45;96269.59;;;16.89;70.18
40982;BME280;26708;50.304;19.028;2023-08-06T07:08:53;96238.94;;;16.86;70.25
40982;BME280;26708;50.304;19.028;2023-08-06T07:11:05;96507.50;;;18.51;70.46
40982;BME280;26708;50.304;19.028;2023-08-06T07:13:11;96514.63;;;18.50;70.33
40982;BME280;26708;50.304;19.028;2023-08-06T07:15:16;96299.81;;;17.11;70.28
40982;BME280;26708;50.304;19.028;2023-08-06T07:17:21;96303.97;;;17.15;70.30
40982;BME280;26708;50.304;19.028;2023-08-06T07:19:26;96526.38;;;18.46;70.46
40982;BME280;26708;50.304;19.028;2023-08-06T07:21:31;96367.91;;;17.48;70.05
40982;BME280;26708;50.304;19.028;2023-08-06T07:23:36;96545.88;;;18.45;69.95
40982;BME280;26708;50.304;19.028;2023-08-06T07:25:41;96570.59;;;18.46;69.73
40982;BME280;26708;50.304;19.028;2023-08-06T07:27:49;96488.31;;;17.82;70.11
40982;BME280;26708;50.304;19.028;2023-08-06T07:29:53;96598.69;;;18.48;70.26
40982;BME280;26708;50.304;19.028;2023-08-06T07:32:00;96610.97;;;18.49;70.04
40982;BME280;26708;50.304;19.028;2023-08-06T07:34:05;96469.31;;;17.75;69.68
40982;BME280;26708;50.304;19.028;2023-08-06T07:36:11;96583.53;;;18.50;69.59
40982;BME280;26708;50.304;19.028;2023-08-06T07:38:18;96467.41;;;17.77;69.19
40982;BME280;26708;50.304;19.028;2023-08-06T07:40:23;96499.91;;;17.93;69.04
40982;BME280;26708;50.304;19.028;2023-08-06T07:42:28;96542.97;;;18.09;68.96
40982;BME280;26708;50.304;19.028;2023-08-06T07:44:36;96513.31;;;17.90;68.53
40982;BME280;26708;50.304;19.028;2023-08-06T07:46:40;96599.75;;;18.32;68.58
40982;BME280;26708;50.304;19.028;2023-08-06T07:48:44;96471.75;;;17.24;68.94
40982;BME280;26708;50.304;19.028;2023-08-06T07:50:51;96579.41;;;18.06;69.04
40982;BME280;26708;50.304;19.028;2023-08-06T07:52:54;96552.66;;;17.96;68.63
40982;BME280;26708;50.304;19.028;2023-08-06T07:54:58;96587.09;;;18.23;69.05
40982;BME280;26708;50.304;19.028;2023-08-06T07:57:07;96602.78;;;18.26;68.66
40982;BME280;26708;50.304;19.028;2023-08-06T07:59:08;96606.69;;;18.20;68.61
40982;BME280;26708;50.304;19.028;2023-08-06T08:01:15;96624.91;;;18.25;68.76
40982;BME280;26708;50.304;19.028;2023-08-06T08:03:21;96471.75;;;17.24;68.49
40982;BME280;26708;50.304;19.028;2023-08-06T08:05:23;96612.72;;;18.22;68.39
40982;BME280;26708;50.304;19.028;2023-08-06T08:07:27;96611.22;;;18.18;68.47
40982;BME280;26708;50.304;19.028;2023-08-06T08:09:34;96580.78;;;18.11;68.99
40982;BME280;26708;50.304;19.028;2023-08-06T08:11:39;96496.16;;;17.69;68.98
40982;BME280;26708;50.304;19.028;2023-08-06T08:13:44;96292.38;;;16.49;68.87
40982;BME280;26708;50.304;19.028;2023-08-06T08:15:47;96520.75;;;17.71;68.35
40982;BME280;26708;50.304;19.028;2023-08-06T08:17:54;96381.88;;;16.96;68.39
40982;BME280;26708;50.304;19.028;2023-08-06T08:19:59;96379.53;;;16.63;68.55
40982;BME280;26708;50.304;19.028;2023-08-06T08:22:04;96304.19;;;16.44;68.56
40982;BME280;26708;50.304;19.028;2023-08-06T08:24:09;96525.53;;;17.79;68.43
40982;BME280;26708;50.304;19.028;2023-08-06T08:26:13;96499.88;;;17.67;68.61
40982;BME280;26708;50.304;19.028;2023-08-06T08:28:19;96445.09;;;17.27;68.91
40982;BME280;26708;50.304;19.028;2023-08-06T08:30:23;96561.81;;;18.05;68.80
40982;BME280;26708;50.304;19.028;2023-08-06T08:32:28;96576.88;;;18.17;68.67
40982;BME280;26708;50.304;19.028;2023-08-06T08:34:36;96443.31;;;17.27;68.54
40982;BME280;26708;50.304;19.028;2023-08-06T08:36:41;96573.94;;;18.21;68.24
40982;BME280;26708;50.304;19.028;2023-08-06T08:38:43;96480.88;;;17.46;68.12
40982;BME280;26708;50.304;19.028;2023-08-06T08:40:52;96272.38;;;16.45;68.16
40982;BME280;26708;50.304;19.028;2023-08-06T08:42:59;96553.91;;;18.17;68.23
40982;BME280;26708;50.304;19.028;2023-08-06T08:45:06;96537.66;;;17.83;67.97
40982;BME280;26708;50.304;19.028;2023-08-06T08:47:18;96586.22;;;18.22;68.05
40982;BME280;26708;50.304;19.028;2023-08-06T08:49:23;96495.16;;;17.58;67.95
40982;BME280;26708;50.304;19.028;2023-08-06T08:51:33;96583.59;;;18.22;68.13
40982;BME280;26708;50.304;19.028;2023-08-06T08:53:37;96390.69;;;16.96;67.89
40982;BME280;26708;50.304;19.028;2023-08-06T08:55:46;96389.91;;;17.08;67.58
40982;BME280;26708;50.304;19.028;2023-08-06T08:57:51;96458.59;;;17.36;67.88
40982;BME280;26708;50.304;19.028;2023-08-06T08:59:57;96433.09;;;17.35;67.72
40982;BME280;26708;50.304;19.028;2023-08-06T09:02:01;96475.78;;;17.29;67.49
40982;BME280;26708;50.304;19.028;2023-08-06T09:04:07;96604.69;;;18.24;67.78
40982;BME280;26708;50.304;19.028;2023-08-06T09:06:15;96542.78;;;17.98;68.10
40982;BME280;26708;50.304;19.028;2023-08-06T09:08:34;96581.50;;;18.27;67.83
40982;BME280;26708;50.304;19.028;2023-08-06T09:10:43;96429.72;;;17.19;67.43
40982;BME280;26708;50.304;19.028;2023-08-06T09:12:51;96535.31;;;18.05;67.54
40982;BME280;26708;50.304;19.028;2023-08-06T09:14:56;96579.06;;;18.24;67.38
40982;BME280;26708;50.304;19.028;2023-08-06T09:17:04;96435.66;;;17.37;67.68
40982;BME280;26708;50.304;19.028;2023-08-06T09:19:10;96507.03;;;17.79;67.92
40982;BME280;26708;50.304;19.028;2023-08-06T09:21:16;96535.81;;;17.97;68.33
40982;BME280;26708;50.304;19.028;2023-08-06T09:23:21;96247.22;;;16.26;67.68
40982;BME280;26708;50.304;19.028;2023-08-06T09:25:38;96548.91;;;18.13;67.47
40982;BME280;26708;50.304;19.028;2023-08-06T09:27:46;96363.88;;;17.02;67.20
40982;BME280;26708;50.304;19.028;2023-08-06T09:29:51;96496.91;;;17.85;67.41
40982;BME280;26708;50.304;19.028;2023-08-06T09:31:56;96533.22;;;18.10;67.59
40982;BME280;26708;50.304;19.028;2023-08-06T09:34:00;96533.59;;;18.04;67.38
40982;BME280;26708;50.304;19.028;2023-08-06T09:36:09;96533.25;;;17.96;67.91
40982;BME280;26708;50.304;19.028;2023-08-06T09:38:15;96552.34;;;18.01;68.04
40982;BME280;26708;50.304;19.028;2023-08-06T09:40:30;96371.44;;;16.80;67.71
40982;BME280;26708;50.304;19.028;2023-08-06T09:42:36;96510.69;;;17.76;68.02
40982;BME280;26708;50.304;19.028;2023-08-06T09:44:42;96374.16;;;16.79;67.69
40982;BME280;26708;50.304;19.028;2023-08-06T09:46:51;96547.56;;;17.93;68.20
40982;BME280;26708;50.304;19.028;2023-08-06T09:48:56;96444.84;;;17.17;67.71
40982;BME280;26708;50.304;19.028;2023-08-06T09:51:02;96561.25;;;18.00;67.72
40982;BME280;26708;50.304;19.028;2023-08-06T09:53:09;96552.56;;;17.98;67.65
40982;BME280;26708;50.304;19.028;2023-08-06T09:55:14;96533.66;;;17.90;67.55
40982;BME280;26708;50.304;19.028;2023-08-06T09:57:25;96417.84;;;17.12;67.59
40982;BME280;26708;50.304;19.028;2023-08-06T09:59:30;96440.44;;;17.04;67.76
40982;BME280;26708;50.304;19.028;2023-08-06T10:01:36;96559.72;;;17.96;67.40
40982;BME280;26708;50.304;19.028;2023-08-06T10:03:40;96399.38;;;16.84;67.28
40982;BME280;26708;50.304;19.028;2023-08-06T10:05:46;96553.13;;;17.89;67.65
40982;BME280;26708;50.304;19.028;2023-08-06T10:07:51;96402.94;;;16.69;67.85
40982;BME280;26708;50.304;19.028;2023-08-06T10:09:58;96307.84;;;16.27;67.38
40982;BME280;26708;50.304;19.028;2023-08-06T10:12:04;96456.00;;;17.08;67.79
40982;BME280;26708;50.304;19.028;2023-08-06T10:14:15;96322.16;;;16.37;67.46
40982;BME280;26708;50.304;19.028;2023-08-06T10:16:25;96576.09;;;18.02;67.30
40982;BME280;26708;50.304;19.028;2023-08-06T10:18:31;96319.00;;;16.46;67.51
40982;BME280;26708;50.304;19.028;2023-08-06T10:20:37;96580.22;;;18.06;68.09
40982;BME280;26708;50.304;19.028;2023-08-06T10:22:43;96438.69;;;17.17;68.13
40982;BME280;26708;50.304;19.028;2023-08-06T10:24:50;96531.69;;;17.79;67.79
40982;BME280;26708;50.304;19.028;2023-08-06T10:26:56;96580.97;;;18.08;67.98
40982;BME280;26708;50.304;19.028;2023-08-06T10:31:58;96320.69;;;16.47;67.18
40982;BME280;26708;50.304;19.028;2023-08-06T10:34:04;96606.09;;;18.15;67.35
40982;BME280;26708;50.304;19.028;2023-08-06T10:36:09;96476.84;;;17.27;67.77
40982;BME280;26708;50.304;19.028;2023-08-06T10:38:16;96508.28;;;17.45;67.55
40982;BME280;26708;50.304;19.028;2023-08-06T10:40:21;96512.16;;;17.40;67.12
40982;BME280;26708;50.304;19.028;2023-08-06T10:42:28;96608.97;;;18.12;66.08
40982;BME280;26708;50.304;19.028;2023-08-06T10:44:34;96568.56;;;17.82;66.35
40982;BME280;26708;50.304;19.028;2023-08-06T10:46:46;96480.53;;;17.24;66.66
40982;BME280;26708;50.304;19.028;2023-08-06T10:48:52;96610.09;;;18.08;66.84
40982;BME280;26708;50.304;19.028;2023-08-06T10:51:00;96360.09;;;16.50;66.94
40982;BME280;26708;50.304;19.028;2023-08-06T10:53:06;96605.09;;;18.04;67.07
40982;BME280;26708;50.304;19.028;2023-08-06T10:55:13;96462.50;;;17.17;67.18
40982;BME280;26708;50.304;19.028;2023-08-06T10:57:15;96300.22;;;16.23;67.48
40982;BME280;26708;50.304;19.028;2023-08-06T10:59:21;96583.47;;;17.83;67.69
40982;BME280;26708;50.304;19.028;2023-08-06T11:01:28;96441.19;;;16.78;67.26
40982;BME280;26708;50.304;19.028;2023-08-06T11:03:37;96425.84;;;16.69;67.51